Time;durP1;ratioP1;P1;durP2;ratioP2;P2;SDS_P1;SDS_P2;PMS_P1;PMS_P2;Temp;Humidity;BMP_temperature;BMP_pressure;BME280_temperature;BME280_humidity;BME280_pressure;Samples;Min_cycle;Max_cycle;Signal;HPM_P1;HPM_P2
2022/04/01 00:00:30;;;;;;;4.40;1.70;;;0.50;99.90;;;;;;5046041;28;20409;-81
2022/04/01 00:02:57;;;;;;;5.03;1.25;;;0.50;99.90;;;;;;5030347;28;20513;-80
2022/04/01 00:05:23;;;;;;;4.93;1.50;;;0.60;99.90;;;;;;5031153;28;20051;-79
2022/04/01 00:07:48;;;;;;;4.03;1.50;;;0.60;99.90;;;;;;5033614;28;20040;-80
2022/04/01 00:10:14;;;;;;;3.88;1.38;;;0.70;99.90;;;;;;5040164;28;20040;-78
2022/04/01 00:12:46;;;;;;;3.95;1.50;;;0.80;99.90;;;;;;5047295;28;20055;-77
2022/04/01 00:15:14;;;;;;;2.92;1.25;;;0.80;99.90;;;;;;5051158;28;20040;-79
2022/04/01 00:17:41;;;;;;;4.78;1.27;;;0.80;99.90;;;;;;5048623;28;20041;-77
2022/04/01 00:20:09;;;;;;;5.13;1.45;;;0.70;99.90;;;;;;5047510;28;20047;-77
2022/04/01 00:22:35;;;;;;;3.97;1.38;;;0.80;99.90;;;;;;5029356;28;20092;-78
2022/04/01 00:25:01;;;;;;;4.22;1.42;;;0.80;99.90;;;;;;5065616;28;20079;-78
2022/04/01 00:27:27;;;;;;;3.85;1.50;;;0.80;99.90;;;;;;5066512;28;20506;-78
2022/04/01 00:29:52;;;;;;;5.22;1.38;;;0.90;99.90;;;;;;5040773;28;20037;-79
2022/04/01 00:32:18;;;;;;;5.18;1.50;;;0.90;99.90;;;;;;5045503;28;20086;-78
2022/04/01 00:34:45;;;;;;;6.35;1.30;;;0.80;99.90;;;;;;5050151;28;20048;-78
2022/04/01 00:37:11;;;;;;;5.03;1.25;;;0.90;99.90;;;;;;5068791;28;20448;-78
2022/04/01 00:39:38;;;;;;;4.20;1.45;;;0.90;99.90;;;;;;5055179;28;20071;-78
2022/04/01 00:42:04;;;;;;;3.55;1.23;;;0.90;99.90;;;;;;5054523;28;20049;-78
2022/04/01 00:44:33;;;;;;;7.43;1.52;;;0.90;99.90;;;;;;5049707;28;20033;-78
2022/04/01 00:47:01;;;;;;;6.88;1.40;;;0.90;99.90;;;;;;5045849;28;20127;-79
2022/04/01 00:49:28;;;;;;;3.83;1.30;;;0.90;99.90;;;;;;5042153;28;20494;-79
2022/04/01 00:51:59;;;;;;;4.63;1.40;;;0.90;99.90;;;;;;5049245;28;20143;-79
2022/04/01 00:54:25;;;;;;;2.37;1.10;;;0.90;99.90;;;;;;5046535;28;20145;-79
2022/04/01 00:56:51;;;;;;;7.47;1.67;;;0.90;99.90;;;;;;5025972;28;20294;-78
2022/04/01 00:59:17;;;;;;;4.80;1.27;;;0.90;99.90;;;;;;5031650;28;20486;-78
2022/04/01 01:01:47;;;;;;;3.88;1.42;;;0.80;99.90;;;;;;5067477;28;20040;-78
2022/04/01 01:04:14;;;;;;;5.38;1.92;;;0.80;99.90;;;;;;5032789;28;20044;-79
2022/04/01 01:06:42;;;;;;;4.72;1.48;;;0.90;99.90;;;;;;5036182;28;20039;-79
2022/04/01 01:09:09;;;;;;;5.70;1.88;;;0.80;99.90;;;;;;5038554;28;20038;-78
2022/04/01 01:11:37;;;;;;;5.18;1.60;;;0.90;99.90;;;;;;5065786;28;20040;-78
2022/04/01 01:14:05;;;;;;;3.70;1.45;;;0.80;99.90;;;;;;5070063;28;20048;-79
2022/04/01 01:16:32;;;;;;;3.85;1.40;;;0.80;99.90;;;;;;5035312;28;20408;-78
2022/04/01 01:19:05;;;;;;;4.68;1.50;;;0.80;99.90;;;;;;5066033;28;20041;-79
2022/04/01 01:21:32;;;;;;;7.78;1.52;;;0.80;99.90;;;;;;5048554;28;20536;-78
2022/04/01 01:24:06;;;;;;;3.75;1.50;;;0.80;99.90;;;;;;5050412;28;20063;-78
2022/04/01 01:26:33;;;;;;;5.10;1.60;;;0.70;99.90;;;;;;5051658;28;20068;-79
2022/04/01 01:28:59;;;;;;;5.43;1.52;;;0.70;99.90;;;;;;5051628;28;20047;-79
2022/04/01 01:31:25;;;;;;;4.00;1.42;;;0.70;99.90;;;;;;5052054;28;20048;-79
2022/04/01 01:33:53;;;;;;;6.18;1.70;;;0.70;99.90;;;;;;5045922;28;20536;-79
2022/04/01 01:36:19;;;;;;;6.22;1.58;;;0.70;99.90;;;;;;5044842;28;20132;-79
2022/04/01 01:38:45;;;;;;;5.95;1.75;;;0.80;99.90;;;;;;5049818;28;20569;-79
2022/04/01 01:41:10;;;;;;;5.15;1.92;;;0.80;99.90;;;;;;5051820;28;20045;-78
2022/04/01 01:43:36;;;;;;;6.38;1.67;;;0.90;99.90;;;;;;5054174;28;20041;-79
2022/04/01 01:46:02;;;;;;;6.07;1.60;;;0.90;99.90;;;;;;5051641;28;20068;-79
2022/04/01 01:48:28;;;;;;;4.00;1.60;;;0.90;99.90;;;;;;5080400;28;20045;-78
2022/04/01 01:56:22;;;;;;;6.95;1.60;;;1.00;99.90;;;;;;5048625;28;20523;-79
2022/04/01 01:58:48;;;;;;;9.40;1.92;;;1.00;99.90;;;;;;5029853;28;20059;-79
2022/04/01 02:01:15;;;;;;;6.75;1.70;;;1.00;99.90;;;;;;5043912;28;20504;-79
2022/04/01 02:03:41;;;;;;;7.85;1.80;;;1.10;99.90;;;;;;5035811;28;20047;-79
2022/04/01 02:06:07;;;;;;;6.45;1.25;;;1.10;99.90;;;;;;5033826;28;20037;-79
2022/04/01 02:08:32;;;;;;;6.20;1.70;;;1.10;99.90;;;;;;5033483;28;20039;-79
2022/04/01 02:10:59;;;;;;;4.50;1.50;;;1.10;99.90;;;;;;5034350;28;20033;-79
2022/04/01 02:13:27;;;;;;;7.32;1.92;;;1.10;99.90;;;;;;5031436;28;20105;-79
2022/04/01 02:15:54;;;;;;;9.40;1.95;;;1.10;99.90;;;;;;5029532;28;20047;-79
2022/04/01 02:18:22;;;;;;;4.97;1.58;;;1.10;99.90;;;;;;5057929;28;20040;-79
2022/04/01 02:20:50;;;;;;;6.07;1.48;;;1.10;99.90;;;;;;5055993;28;20455;-80
2022/04/01 02:23:16;;;;;;;6.93;1.60;;;1.20;99.90;;;;;;5034098;28;20036;-80
2022/04/01 02:25:43;;;;;;;5.55;1.50;;;1.20;99.90;;;;;;5031218;28;20040;-80
2022/04/01 02:28:13;;;;;;;4.35;1.33;;;1.20;99.90;;;;;;5027699;28;20559;-80
2022/04/01 02:30:39;;;;;;;4.30;1.48;;;1.20;99.90;;;;;;5068462;28;20040;-80
2022/04/01 02:33:06;;;;;;;6.30;1.70;;;1.20;99.90;;;;;;5034338;28;20455;-80
2022/04/01 02:35:32;;;;;;;9.68;1.48;;;1.20;99.90;;;;;;5044027;28;20041;-80
2022/04/01 02:37:59;;;;;;;4.55;1.45;;;1.20;99.90;;;;;;5048688;28;20048;-80
2022/04/01 02:40:25;;;;;;;6.10;1.60;;;1.20;99.90;;;;;;5070912;28;20076;-80
2022/04/01 02:42:53;;;;;;;9.27;1.45;;;1.20;99.90;;;;;;5069519;28;20456;-80
2022/04/01 02:45:26;;;;;;;7.13;1.63;;;1.20;99.90;;;;;;5052059;28;20044;-79
2022/04/01 02:47:53;;;;;;;6.22;1.60;;;1.20;99.90;;;;;;5074682;28;20106;-81
2022/04/01 02:50:20;;;;;;;5.72;1.45;;;1.20;99.90;;;;;;5069979;28;20089;-81
2022/04/01 02:52:46;;;;;;;4.88;1.63;;;1.20;99.90;;;;;;5045727;28;20055;-81
2022/04/01 02:55:12;;;;;;;5.32;1.38;;;1.20;99.90;;;;;;5046905;28;20523;-81
2022/04/01 02:57:38;;;;;;;6.50;1.85;;;1.20;99.90;;;;;;5051982;28;20040;-79
2022/04/01 03:00:09;;;;;;;3.58;1.30;;;1.20;99.90;;;;;;5057819;28;20044;-79
2022/04/01 03:02:40;;;;;;;6.27;1.27;;;1.20;99.90;;;;;;5033686;28;20048;-78
2022/04/01 03:05:06;;;;;;;5.97;1.48;;;1.10;99.90;;;;;;5046242;28;20041;-80
2022/04/01 03:07:32;;;;;;;10.05;1.75;;;1.10;99.90;;;;;;5028813;28;20044;-80
2022/04/01 03:09:58;;;;;;;3.80;0.88;;;1.10;99.90;;;;;;5029390;28;20101;-80
2022/04/01 03:12:25;;;;;;;13.82;1.83;;;1.10;99.90;;;;;;5047259;28;20452;-80
2022/04/01 03:14:51;;;;;;;10.25;2.25;;;1.20;99.90;;;;;;5052124;28;20037;-80
2022/04/01 03:17:17;;;;;;;8.27;1.65;;;1.10;99.90;;;;;;5043249;28;20049;-79
2022/04/01 03:19:44;;;;;;;7.82;1.63;;;1.10;99.90;;;;;;5035357;28;20127;-80
2022/04/01 03:22:09;;;;;;;4.40;1.30;;;1.10;99.90;;;;;;5028246;28;20040;-80
2022/04/01 03:24:35;;;;;;;5.90;1.48;;;1.10;99.90;;;;;;5045666;28;20097;-81
2022/04/01 03:27:02;;;;;;;5.53;1.67;;;1.10;99.90;;;;;;5049081;28;20041;-81
2022/04/01 03:29:28;;;;;;;5.50;1.50;;;1.20;99.90;;;;;;5041425;28;20051;-80
2022/04/01 03:31:54;;;;;;;3.33;1.13;;;1.20;99.90;;;;;;5043263;28;20055;-81
2022/04/01 03:34:20;;;;;;;7.75;1.50;;;1.20;99.90;;;;;;5047575;28;20036;-80
2022/04/01 03:36:46;;;;;;;9.80;1.20;;;1.20;99.90;;;;;;5050365;28;20048;-80
2022/04/01 03:39:12;;;;;;;5.90;1.48;;;1.20;99.90;;;;;;5046845;28;20093;-80
2022/04/01 03:41:39;;;;;;;7.43;1.80;;;1.30;99.90;;;;;;5030116;28;20049;-81
2022/04/01 03:44:05;;;;;;;3.22;1.15;;;1.30;99.90;;;;;;5029464;28;20044;-81
2022/04/01 03:47:01;;;;;;;3.42;1.30;;;1.30;99.90;;;;;;5038285;28;20113;-81
2022/04/01 03:49:29;;;;;;;8.93;1.33;;;1.30;99.90;;;;;;5029411;28;20112;-81
2022/04/01 03:51:55;;;;;;;4.47;1.27;;;1.30;99.90;;;;;;5023563;28;20056;-81
2022/04/01 03:54:24;;;;;;;4.07;1.15;;;1.30;99.90;;;;;;5016703;28;20599;-80
2022/04/01 03:56:58;;;;;;;5.80;1.17;;;1.30;99.90;;;;;;5029330;28;20440;-80
2022/04/01 03:59:26;;;;;;;5.72;1.42;;;1.30;99.90;;;;;;5008817;28;20049;-81
2022/04/01 04:01:53;;;;;;;4.45;1.05;;;1.80;99.90;;;;;;5029968;28;20037;-82
2022/04/01 04:04:20;;;;;;;5.82;1.35;;;1.70;99.90;;;;;;5026965;28;20545;-81
2022/04/01 04:06:47;;;;;;;5.90;1.30;;;1.20;99.90;;;;;;5042522;28;20040;-81
2022/04/01 04:09:16;;;;;;;6.68;1.70;;;1.30;99.90;;;;;;5050586;28;20384;-81
2022/04/01 04:11:44;;;;;;;6.63;1.27;;;1.30;99.90;;;;;;5005098;28;20402;-81
2022/04/01 04:14:10;;;;;;;8.88;1.10;;;1.30;99.90;;;;;;5018152;28;20045;-83
2022/04/01 04:16:45;;;;;;;5.93;1.58;;;1.40;99.90;;;;;;5008886;28;20045;-81
2022/04/01 04:19:32;;;;;;;5.82;1.67;;;1.30;99.90;;;;;;5033283;28;20076;-82
2022/04/01 04:22:15;;;;;;;6.53;1.10;;;1.30;99.90;;;;;;4999590;28;20515;-84
2022/04/01 04:24:49;;;;;;;5.47;1.48;;;1.30;99.90;;;;;;5048215;28;20051;-83
2022/04/01 04:27:23;;;;;;;4.40;1.40;;;1.30;99.90;;;;;;5012726;28;20044;-81
2022/04/01 04:29:50;;;;;;;6.07;1.25;;;2.00;99.90;;;;;;5023676;28;20093;-82
2022/04/01 04:32:30;;;;;;;5.22;1.17;;;1.40;99.90;;;;;;5013816;28;20048;-81
2022/04/01 04:34:57;;;;;;;4.50;1.15;;;1.40;99.90;;;;;;5033603;28;20045;-81
2022/04/01 04:37:29;;;;;;;6.32;1.48;;;1.40;99.90;;;;;;5054837;28;20045;-82
2022/04/01 04:39:55;;;;;;;4.38;1.33;;;1.40;99.90;;;;;;5044019;28;20040;-81
2022/04/01 04:42:22;;;;;;;8.45;1.63;;;1.40;99.90;;;;;;5033334;28;20095;-81
2022/04/01 04:44:49;;;;;;;5.72;1.27;;;1.40;99.90;;;;;;5025553;28;20045;-81
2022/04/01 04:47:16;;;;;;;4.45;1.20;;;1.40;99.90;;;;;;5039897;28;20048;-81
2022/04/01 04:49:42;;;;;;;6.03;1.30;;;1.40;99.90;;;;;;5054092;28;20072;-82
2022/04/01 04:52:09;;;;;;;4.72;1.15;;;1.40;99.90;;;;;;5044814;28;20033;-81
2022/04/01 04:54:39;;;;;;;6.88;1.38;;;1.40;99.90;;;;;;5039628;28;20521;-81
2022/04/01 04:57:06;;;;;;;7.28;1.58;;;1.30;99.90;;;;;;5073509;28;20128;-82
2022/04/01 04:59:34;;;;;;;4.45;1.25;;;1.40;99.90;;;;;;5066564;28;20485;-82
2022/04/01 05:02:16;;;;;;;4.68;1.30;;;1.40;99.90;;;;;;5077933;28;20044;-81
2022/04/01 05:04:50;;;;;;;3.33;1.20;;;1.40;99.90;;;;;;5034308;28;20036;-82
2022/04/01 05:07:35;;;;;;;3.88;1.23;;;1.40;99.90;;;;;;5033194;28;20397;-82
2022/04/01 05:10:08;;;;;;;4.18;1.27;;;1.40;99.90;;;;;;5071348;28;20095;-81
2022/04/01 05:12:42;;;;;;;6.82;1.52;;;1.50;99.90;;;;;;5049723;28;20046;-81
2022/04/01 05:15:10;;;;;;;5.90;1.20;;;1.50;99.90;;;;;;5057672;28;20044;-82
2022/04/01 05:18:01;;;;;;;3.83;1.23;;;1.50;99.90;;;;;;5065324;28;20062;-79
2022/04/01 05:20:28;;;;;;;7.07;1.42;;;1.50;99.90;;;;;;5049566;28;20067;-80
2022/04/01 05:22:58;;;;;;;3.38;1.25;;;1.50;99.90;;;;;;5054173;28;20048;-80
2022/04/01 05:25:31;;;;;;;7.78;1.50;;;2.00;99.90;;;;;;5041718;28;20072;-82
2022/04/01 05:28:01;;;;;;;5.13;1.45;;;1.40;99.90;;;;;;5062775;28;20036;-82
2022/04/01 05:30:30;;;;;;;7.50;1.40;;;1.50;99.90;;;;;;5039689;28;20048;-80
2022/04/01 05:33:06;;;;;;;6.93;1.50;;;1.40;99.90;;;;;;5033022;28;20055;-82
2022/04/01 05:35:35;;;;;;;6.88;1.40;;;1.50;99.90;;;;;;5051512;28;20048;-81
2022/04/01 05:38:01;;;;;;;6.50;1.58;;;1.50;99.90;;;;;;5058368;28;20033;-81
2022/04/01 05:40:28;;;;;;;5.15;1.58;;;1.50;99.90;;;;;;5049835;28;20036;-81
2022/04/01 05:43:00;;;;;;;8.20;1.83;;;2.00;99.90;;;;;;5027435;28;20039;-82
2022/04/01 05:45:28;;;;;;;4.43;1.42;;;1.50;99.90;;;;;;5029255;28;20118;-82
2022/04/01 05:47:56;;;;;;;6.20;1.98;;;1.50;99.90;;;;;;5038580;28;20064;-80
2022/04/01 05:50:23;;;;;;;4.93;1.70;;;1.50;99.90;;;;;;5039446;28;20044;-82
2022/04/01 05:52:51;;;;;;;6.13;1.58;;;1.50;99.90;;;;;;5035525;28;20048;-80
2022/04/01 05:55:21;;;;;;;7.00;1.60;;;1.60;99.90;;;;;;5074543;28;20094;-81
2022/04/01 05:57:46;;;;;;;4.00;1.20;;;1.60;99.90;;;;;;5053708;28;20039;-81
2022/04/01 06:00:12;;;;;;;9.77;1.67;;;2.20;99.90;;;;;;5052887;28;20580;-81
2022/04/01 06:02:47;;;;;;;9.32;2.60;;;1.60;99.90;;;;;;5029633;28;20051;-80
2022/04/01 06:05:29;;;;;;;8.95;1.60;;;1.60;99.90;;;;;;5074675;28;20119;-81
2022/04/01 06:08:17;;;;;;;3.45;1.40;;;1.60;99.90;;;;;;5056290;28;20062;-81
2022/04/01 06:10:57;;;;;;;6.35;1.30;;;1.60;99.90;;;;;;5033644;28;20095;-81
2022/04/01 06:13:32;;;;;;;5.53;1.70;;;1.70;99.90;;;;;;5044413;28;20056;-81
2022/04/01 06:16:31;;;;;;;3.75;1.40;;;0.80;99.90;;;;;;5050484;28;20480;-80
2022/04/01 06:19:10;;;;;;;8.00;1.35;;;1.70;99.90;;;;;;5004515;28;20568;-82
2022/04/01 06:21:47;;;;;;;6.90;1.40;;;1.70;99.90;;;;;;5048108;28;20131;-81
2022/04/01 06:24:35;;;;;;;4.88;1.40;;;1.70;99.90;;;;;;5043448;28;20501;-82
2022/04/01 06:27:01;;;;;;;7.28;1.63;;;1.80;99.90;;;;;;5045486;28;20509;-82
2022/04/01 06:29:41;;;;;;;6.28;1.40;;;2.10;99.90;;;;;;5039983;28;20091;-82
2022/04/01 06:32:29;;;;;;;4.50;1.10;;;1.80;99.90;;;;;;5028798;28;20130;-81
2022/04/01 06:35:01;;;;;;;6.25;1.27;;;1.80;99.90;;;;;;5048090;28;20071;-82
2022/04/01 06:37:33;;;;;;;;;;;1.80;99.90;;;;;;5032858;28;20127;-81
2022/04/01 06:40:05;;;;;;;5.47;1.08;;;1.90;99.90;;;;;;5015809;28;19996;-80
2022/04/01 06:42:37;;;;;;;5.70;1.25;;;1.90;99.90;;;;;;5043546;28;20101;-81
2022/04/01 06:45:08;;;;;;;5.30;1.23;;;1.90;99.90;;;;;;5041961;28;20386;-81
2022/04/01 06:47:34;;;;;;;;;;;1.90;99.90;;;;;;5027571;28;20119;-82
2022/04/01 06:50:00;;;;;;;6.45;1.40;;;1.90;99.90;;;;;;5028963;28;19924;-82
2022/04/01 06:52:26;;;;;;;3.92;1.55;;;2.00;99.90;;;;;;5020170;28;20580;-83
2022/04/01 06:54:54;;;;;;;4.22;1.33;;;2.00;99.90;;;;;;5022776;28;20037;-82
2022/04/01 06:57:20;;;;;;;4.55;1.50;;;2.00;99.90;;;;;;5006078;28;20084;-82
2022/04/01 06:59:46;;;;;;;6.78;1.40;;;2.00;99.90;;;;;;5005363;28;20043;-82
2022/04/01 07:02:12;;;;;;;6.88;1.50;;;2.10;99.90;;;;;;5005085;28;20382;-82
2022/04/01 07:04:38;;;;;;;4.00;1.08;;;2.10;99.90;;;;;;5025498;28;20044;-83
2022/04/01 07:07:04;;;;;;;4.10;1.30;;;2.70;99.90;;;;;;5024238;28;20095;-84
2022/04/01 07:09:30;;;;;;;8.73;1.40;;;2.10;99.90;;;;;;5009624;28;20036;-82
2022/04/01 07:12:01;;;;;;;7.13;1.20;;;2.20;99.90;;;;;;5027694;28;20040;-83
2022/04/01 07:14:31;;;;;;;6.18;1.30;;;2.20;99.90;;;;;;5041967;28;20060;-82
2022/04/01 07:16:57;;;;;;;5.30;1.40;;;2.20;99.90;;;;;;5043014;28;20025;-83
2022/04/01 07:19:23;;;;;;;4.32;1.52;;;2.20;99.90;;;;;;5035880;28;20041;-83
2022/04/01 07:21:49;;;;;;;6.35;1.33;;;2.30;99.90;;;;;;5048783;28;20045;-81
2022/04/01 07:24:15;;;;;;;7.75;1.42;;;2.30;99.90;;;;;;5026916;28;20056;-81
2022/04/01 07:26:44;;;;;;;3.60;1.35;;;2.30;99.90;;;;;;5037819;28;20061;-84
2022/04/01 07:29:10;;;;;;;4.03;1.00;;;2.30;99.90;;;;;;5010159;28;20052;-82
2022/04/01 07:34:37;;;;;;;8.60;1.23;;;2.40;99.90;;;;;;5022247;28;20052;-83
2022/04/01 07:37:04;;;;;;;3.08;1.00;;;2.40;99.90;;;;;;5041728;28;20037;-82
2022/04/01 07:39:31;;;;;;;3.78;1.10;;;2.40;99.90;;;;;;5025613;28;20102;-80
2022/04/01 07:41:57;;;;;;;2.50;1.00;;;2.40;99.90;;;;;;5043443;28;20037;-82
2022/04/01 07:44:22;;;;;;;4.95;1.15;;;2.50;99.90;;;;;;5042781;28;20266;-84
2022/04/01 07:46:50;;;;;;;4.63;1.10;;;3.00;99.90;;;;;;5035439;28;20067;-82
2022/04/01 07:49:17;;;;;;;2.72;1.15;;;2.50;99.90;;;;;;5017098;28;20079;-80
2022/04/01 07:51:43;;;;;;;3.28;1.05;;;2.50;99.90;;;;;;5044228;28;20726;-79
2022/04/01 07:54:10;;;;;;;4.10;1.00;;;2.40;99.90;;;;;;5029456;28;20098;-78
2022/04/01 07:56:37;;;;;;;5.38;1.20;;;2.40;99.90;;;;;;5058949;28;20044;-79
2022/04/01 07:59:04;;;;;;;3.65;1.25;;;2.40;99.90;;;;;;5043957;28;20079;-80
2022/04/01 08:01:30;;;;;;;3.53;1.70;;;2.40;99.90;;;;;;5021097;28;20063;-78
2022/04/01 08:03:56;;;;;;;3.55;1.38;;;2.40;99.90;;;;;;5041842;28;20048;-79
2022/04/01 08:06:21;;;;;;;5.75;1.60;;;2.40;99.90;;;;;;5044368;28;20071;-78
2022/04/01 08:08:47;;;;;;;4.95;1.20;;;2.40;99.90;;;;;;5044374;28;20744;-86
2022/04/01 08:11:13;;;;;;;3.72;1.73;;;2.70;99.90;;;;;;5044079;28;20415;-81
2022/04/01 08:13:38;;;;;;;3.17;1.33;;;2.00;99.90;;;;;;5059870;28;20052;-81
2022/04/01 08:16:04;;;;;;;6.60;1.50;;;2.30;99.90;;;;;;5040080;28;20051;-81
2022/04/01 08:18:30;;;;;;;4.57;1.65;;;2.30;99.90;;;;;;5026512;28;20431;-80
2022/04/01 08:20:56;;;;;;;4.07;1.35;;;2.20;99.90;;;;;;5060653;28;20037;-81
2022/04/01 08:23:22;;;;;;;5.13;1.52;;;3.30;99.90;;;;;;5041506;28;20048;-82
2022/04/01 08:25:48;;;;;;;6.53;1.17;;;2.30;99.90;;;;;;5028254;28;20040;-83
2022/04/01 08:28:14;;;;;;;4.10;1.50;;;2.30;99.90;;;;;;5030384;28;20052;-87
2022/04/01 08:30:41;;;;;;;6.30;1.70;;;1.90;99.90;;;;;;5027582;28;20044;-85
2022/04/01 08:33:06;;;;;;;7.57;1.35;;;2.40;99.90;;;;;;5042674;28;20042;-82
2022/04/01 08:35:33;;;;;;;5.65;1.60;;;2.40;99.90;;;;;;5024820;28;20259;-83
2022/04/01 08:38:00;;;;;;;4.35;1.30;;;2.40;99.90;;;;;;5063920;28;20056;-83
2022/04/01 08:40:27;;;;;;;4.13;1.50;;;2.40;99.90;;;;;;5064240;28;20404;-87
2022/04/01 08:42:53;;;;;;;3.38;1.13;;;2.40;99.90;;;;;;5038966;28;20044;-85
2022/04/01 08:45:19;;;;;;;6.78;1.63;;;2.40;99.90;;;;;;5026449;28;20154;-85
2022/04/01 08:47:47;;;;;;;4.07;1.15;;;2.40;99.90;;;;;;5043955;28;20289;-85
2022/04/01 08:50:13;;;;;;;3.80;1.10;;;2.50;99.90;;;;;;5056829;28;20267;-84
2022/04/01 08:52:40;;;;;;;6.75;1.55;;;2.60;99.90;;;;;;5020115;28;20049;-82
2022/04/01 08:55:08;;;;;;;5.03;1.58;;;2.70;99.90;;;;;;5023147;28;20055;-82
2022/04/01 08:57:35;;;;;;;4.70;1.50;;;2.70;99.90;;;;;;5061695;28;20048;-84
2022/04/01 09:00:03;;;;;;;5.95;1.60;;;2.70;99.90;;;;;;5063546;28;20044;-83
2022/04/01 09:02:28;;;;;;;4.82;1.35;;;2.80;99.90;;;;;;5049861;28;20087;-80
2022/04/01 09:05:08;;;;;;;4.43;1.50;;;2.80;99.90;;;;;;5066431;28;20102;-80
2022/04/01 09:07:34;;;;;;;4.40;1.65;;;2.90;99.90;;;;;;5064769;28;20110;-79
2022/04/01 09:10:07;;;;;;;4.50;1.77;;;3.10;99.90;;;;;;5033557;28;20517;-78
2022/04/01 09:12:34;;;;;;;4.15;1.60;;;3.10;99.90;;;;;;5069201;28;20036;-81
2022/04/01 09:15:06;;;;;;;5.53;1.42;;;3.10;99.90;;;;;;5048335;28;20127;-81
2022/04/01 09:17:43;;;;;;;5.80;1.85;;;3.10;99.90;;;;;;5032957;28;20626;-79
2022/04/01 09:20:10;;;;;;;5.78;1.90;;;3.10;99.90;;;;;;5068408;28;20048;-81
2022/04/01 09:22:37;;;;;;;6.97;1.40;;;3.10;99.90;;;;;;5025803;28;20075;-81
2022/04/01 09:25:15;;;;;;;4.50;1.50;;;3.10;99.90;;;;;;5025135;28;20049;-82
2022/04/01 09:27:43;;;;;;;5.50;1.75;;;3.10;99.90;;;;;;5062744;28;20048;-77
2022/04/01 09:30:31;;;;;;;8.82;1.83;;;3.10;99.90;;;;;;5047136;28;20378;-75
2022/04/01 09:33:00;;;;;;;5.05;1.73;;;3.00;99.90;;;;;;5043451;28;20153;-76
2022/04/01 09:35:28;;;;;;;5.75;1.35;;;3.00;99.90;;;;;;5043452;28;20075;-75
2022/04/01 09:38:01;;;;;;;5.68;1.75;;;3.00;99.90;;;;;;5045617;28;20044;-76
2022/04/01 09:40:28;;;;;;;8.15;1.85;;;3.00;99.90;;;;;;5042999;28;20058;-78
2022/04/01 09:42:58;;;;;;;3.65;1.30;;;3.10;99.90;;;;;;5025255;28;20044;-78
2022/04/01 09:45:27;;;;;;;8.55;1.35;;;3.20;99.90;;;;;;5041169;28;20057;-77
2022/04/01 09:48:02;;;;;;;5.47;1.75;;;3.30;99.90;;;;;;5043742;28;20090;-76
2022/04/01 09:50:33;;;;;;;4.43;1.50;;;3.30;99.90;;;;;;5044668;28;20044;-78
2022/04/01 09:53:26;;;;;;;4.60;1.50;;;3.30;99.90;;;;;;5028503;28;20048;-78
2022/04/01 09:55:52;;;;;;;6.65;1.77;;;3.40;99.90;;;;;;5023696;28;20044;-79
2022/04/01 09:58:22;;;;;;;5.88;1.45;;;3.40;99.90;;;;;;5061508;28;20040;-78
2022/04/01 10:00:48;;;;;;;4.80;1.40;;;3.50;99.90;;;;;;5038597;28;20052;-79
2022/04/01 10:03:15;;;;;;;4.18;1.65;;;3.60;99.90;;;;;;5045513;28;20072;-81
2022/04/01 10:05:41;;;;;;;7.07;1.48;;;3.60;99.90;;;;;;5079776;28;20160;-82
2022/04/01 10:08:09;;;;;;;6.53;1.35;;;3.70;99.90;;;;;;5070168;28;20052;-81
2022/04/01 10:10:36;;;;;;;5.70;1.40;;;3.70;99.90;;;;;;5061891;28;20076;-81
2022/04/01 10:13:10;;;;;;;7.00;1.60;;;4.00;99.90;;;;;;5027641;28;20052;-82
2022/04/01 10:15:37;;;;;;;6.20;1.60;;;3.90;99.90;;;;;;5044569;28;20048;-82
2022/04/01 10:18:03;;;;;;;5.43;1.30;;;4.00;99.90;;;;;;5024954;28;20611;-81
2022/04/01 10:20:35;;;;;;;6.40;1.80;;;4.10;99.90;;;;;;5041189;28;20061;-82
2022/04/01 10:23:11;;;;;;;4.68;1.50;;;4.10;99.90;;;;;;5025205;28;20352;-81
2022/04/01 10:25:36;;;;;;;5.53;1.80;;;4.20;99.90;;;;;;5056530;28;20381;-80
2022/04/01 10:28:04;;;;;;;6.30;1.55;;;4.20;99.90;;;;;;5044231;28;20050;-82
2022/04/01 10:30:32;;;;;;;4.97;1.40;;;4.30;99.90;;;;;;5039556;28;20110;-81
2022/04/01 10:32:59;;;;;;;4.43;1.50;;;4.40;99.90;;;;;;5040773;28;20045;-81
2022/04/01 10:35:30;;;;;;;3.42;1.30;;;5.50;99.90;;;;;;5024423;28;20040;-80
2022/04/01 10:38:15;;;;;;;3.65;1.38;;;4.60;99.90;;;;;;5063128;28;20039;-81
2022/04/01 10:40:49;;;;;;;3.45;1.00;;;4.60;99.90;;;;;;5043503;28;20048;-81
2022/04/01 10:43:27;;;;;;;6.70;1.13;;;4.60;98.90;;;;;;5030057;28;20523;-85
2022/04/01 10:46:15;;;;;;;5.10;1.10;;;4.60;98.80;;;;;;5042543;28;20490;-84
2022/04/01 10:52:14;;;;;;;3.28;1.10;;;4.80;98.90;;;;;;5059877;28;20063;-83
2022/04/01 10:54:44;;;;;;;5.45;0.90;;;4.80;97.80;;;;;;5029676;28;20083;-81
2022/04/01 10:57:12;;;;;;;3.17;1.00;;;4.80;96.30;;;;;;5047993;28;20091;-80
2022/04/01 10:59:46;;;;;;;4.57;1.02;;;4.80;96.00;;;;;;5030047;28;20540;-80
2022/04/01 11:02:15;;;;;;;2.63;0.88;;;4.70;94.30;;;;;;5029105;28;20312;-81
2022/04/01 11:04:43;;;;;;;4.78;1.10;;;4.70;94.50;;;;;;5039719;28;20076;-81
2022/04/01 11:07:33;;;;;;;5.90;1.27;;;4.60;95.00;;;;;;5061115;28;20050;-84
2022/04/01 11:10:04;;;;;;;2.60;0.80;;;4.70;95.60;;;;;;5049143;28;20098;-87
2022/04/01 11:12:39;;;;;;;5.00;1.85;;;4.70;94.50;;;;;;5026177;28;20060;-83
2022/04/01 11:17:36;;;;;;;1.65;0.73;;;4.70;94.50;;;;;;5043348;28;20395;-88
2022/04/01 11:20:18;;;;;;;1.00;0.63;;;4.50;92.20;;;;;;5047412;28;20055;-85
2022/04/01 11:22:54;;;;;;;1.98;0.70;;;4.80;93.70;;;;;;5032733;28;20613;-85
2022/04/01 11:25:27;;;;;;;2.13;0.60;;;4.80;92.30;;;;;;5066983;28;20152;-86
2022/04/01 11:27:58;;;;;;;3.28;0.70;;;4.90;94.10;;;;;;5082030;28;20048;-86
2022/04/01 11:30:40;;;;;;;3.35;1.02;;;4.90;90.80;;;;;;5072574;28;20059;-83
2022/04/01 11:33:07;;;;;;;;;;;4.90;90.70;;;;;;5052401;28;20016;-86
2022/04/01 11:35:36;;;;;;;4.88;1.00;;;4.90;91.60;;;;;;5062780;28;19989;-85
2022/04/01 11:38:05;;;;;;;1.85;0.73;;;4.90;91.00;;;;;;5050361;28;20055;-84
2022/04/01 11:40:33;;;;;;;3.97;1.27;;;4.90;90.80;;;;;;5047807;28;20041;-87
2022/04/01 11:43:09;;;;;;;2.15;0.80;;;4.80;90.70;;;;;;5027504;28;20112;-85
2022/04/01 11:45:42;;;;;;;4.65;1.13;;;4.80;91.20;;;;;;5044314;28;20522;-86
2022/04/01 11:48:34;;;;;;;1.27;0.73;;;4.90;91.60;;;;;;5025115;28;20521;-79
2022/04/01 11:51:02;;;;;;;;;;;5.00;92.70;;;;;;5061704;28;20044;-84
2022/04/01 11:53:31;;;;;;;3.45;0.95;;;5.10;92.00;;;;;;5045042;28;20214;-84
2022/04/01 11:55:57;;;;;;;4.82;1.13;;;5.10;93.20;;;;;;5026634;28;20044;-85
2022/04/01 11:58:24;;;;;;;6.68;1.38;;;5.10;93.40;;;;;;5062935;28;20044;-84
2022/04/01 12:00:50;;;;;;;5.68;1.05;;;5.10;95.10;;;;;;5026227;28;20045;-87
2022/04/01 12:03:20;;;;;;;6.95;1.83;;;5.10;96.50;;;;;;5029934;28;20518;-86
2022/04/01 12:05:51;;;;;;;3.58;1.35;;;5.10;97.10;;;;;;5042699;28;20054;-85
2022/04/01 12:11:04;;;;;;;5.13;1.00;;;5.20;96.60;;;;;;5051104;28;20044;-85
2022/04/01 12:13:33;;;;;;;3.30;0.90;;;5.10;94.90;;;;;;5061348;28;20056;-85
2022/04/01 12:15:59;;;;;;;4.80;1.23;;;5.00;95.50;;;;;;5044376;28;20437;-86
2022/04/01 12:18:30;;;;;;;4.55;1.27;;;4.90;96.00;;;;;;5026243;28;20572;-87
2022/04/01 12:21:04;;;;;;;5.80;1.63;;;4.90;97.20;;;;;;5043272;28;20112;-86
2022/04/01 12:23:35;;;;;;;7.05;1.60;;;4.90;97.50;;;;;;5016569;28;20080;-83
2022/04/01 12:26:04;;;;;;;7.78;2.15;;;4.80;98.30;;;;;;5037989;28;20401;-87
2022/04/01 12:28:38;;;;;;;3.75;1.35;;;4.80;98.50;;;;;;5023634;28;20061;-84
2022/04/01 12:31:04;;;;;;;7.78;1.25;;;4.70;97.20;;;;;;5026453;28;20048;-85
2022/04/01 12:33:33;;;;;;;3.05;1.15;;;4.60;98.10;;;;;;5062203;28;20041;-87
2022/04/01 12:36:07;;;;;;;6.38;1.20;;;4.60;99.30;;;;;;5048220;28;20110;-86
2022/04/01 12:38:38;;;;;;;10.48;1.35;;;4.70;99.90;;;;;;5045024;28;20041;-86
2022/04/01 12:41:17;;;;;;;3.85;1.20;;;5.00;99.90;;;;;;5065924;28;20040;-83
2022/04/01 12:43:51;;;;;;;5.25;1.30;;;4.70;99.90;;;;;;5028386;28;20082;-84
2022/04/01 12:46:34;;;;;;;6.60;1.80;;;4.60;99.90;;;;;;5045282;28;20098;-87
2022/04/01 12:49:15;;;;;;;7.53;1.98;;;4.60;99.90;;;;;;5030508;28;20051;-87
2022/04/01 12:51:54;;;;;;;4.97;1.70;;;4.60;99.90;;;;;;5024079;28;20414;-86
2022/04/01 12:54:39;;;;;;;4.68;1.40;;;4.60;99.90;;;;;;5061815;28;20489;-86
2022/04/01 12:57:05;;;;;;;3.17;1.17;;;4.50;99.90;;;;;;5044879;28;20379;-89
2022/04/01 12:59:50;;;;;;;4.65;1.30;;;4.50;99.90;;;;;;5055955;28;20581;-86
2022/04/01 13:02:17;;;;;;;3.50;1.17;;;4.60;99.90;;;;;;5036548;28;20447;-84
2022/04/01 13:04:46;;;;;;;2.33;1.17;;;4.60;99.90;;;;;;5040528;28;20105;-87
2022/04/01 13:07:15;;;;;;;5.07;1.17;;;4.70;99.90;;;;;;5028591;28;20044;-85
2022/04/01 13:09:54;;;;;;;5.38;1.15;;;4.80;99.90;;;;;;5064767;28;20459;-86
2022/04/01 13:12:22;;;;;;;4.65;1.40;;;4.90;99.90;;;;;;5053024;28;20078;-84
2022/04/01 13:15:00;;;;;;;7.78;1.20;;;5.10;99.90;;;;;;5068533;28;20045;-84
2022/04/01 13:17:26;;;;;;;4.43;1.25;;;4.80;99.90;;;;;;5048703;28;21365;-84
2022/04/01 13:19:52;;;;;;;4.68;1.13;;;4.90;99.90;;;;;;5047744;28;20702;-86
2022/04/01 13:22:18;;;;;;;6.70;1.20;;;4.90;99.90;;;;;;5032321;28;20045;-84
2022/04/01 13:24:48;;;;;;;5.22;1.20;;;5.00;99.90;;;;;;5049365;28;20109;-86
2022/04/01 13:27:20;;;;;;;4.57;1.40;;;5.00;99.90;;;;;;5067572;28;20147;-85